createdAt,value
2018-12-11T00:00:20.400Z,78.10
2018-12-11T00:02:54.556Z,78.00
2018-12-11T00:05:30.799Z,78.20
2018-12-11T00:08:04.630Z,78.10
2018-12-11T00:10:39.890Z,77.90
2018-12-11T00:13:16.018Z,78.90
2018-12-11T00:15:50.337Z,78.10
2018-12-11T00:18:25.746Z,78.10
2018-12-11T00:21:00.151Z,78.20
2018-12-11T00:23:34.421Z,78.20
2018-12-11T00:26:08.442Z,77.80
2018-12-11T00:28:43.841Z,77.80
2018-12-11T00:31:17.881Z,77.60
2018-12-11T00:33:51.599Z,77.60
2018-12-11T00:36:27.796Z,77.40
2018-12-11T00:39:01.867Z,77.20
2018-12-11T00:41:35.588Z,77.10
2018-12-11T00:44:10.490Z,77.00
2018-12-11T00:46:45.841Z,76.90
2018-12-11T00:49:21.755Z,76.50
2018-12-11T00:51:55.898Z,76.70
2018-12-11T00:54:29.839Z,76.30
2018-12-11T00:57:03.958Z,76.20
2018-12-11T00:59:39.458Z,76.50
2018-12-11T01:02:13.759Z,76.60
2018-12-11T01:04:44.131Z,75.80
2018-12-11T01:07:18.390Z,75.80
2018-12-11T01:09:52.767Z,75.70
2018-12-11T01:12:29.947Z,75.20
2018-12-11T01:15:04.480Z,75.60
2018-12-11T01:17:38.528Z,74.90
2018-12-11T01:20:13.729Z,74.60
2018-12-11T01:22:49.063Z,74.20
2018-12-11T01:25:23.393Z,74.20
2018-12-11T01:27:57.955Z,74.40
2018-12-11T01:30:32.076Z,75.20
2018-12-11T01:33:07.722Z,74.10
2018-12-11T01:35:45.272Z,74.10
2018-12-11T01:38:24.724Z,73.80
2018-12-11T01:41:00.842Z,73.40
2018-12-11T01:43:35.786Z,73.50
2018-12-11T01:46:09.937Z,73.30
2018-12-11T01:48:47.594Z,73.50
2018-12-11T01:51:22.287Z,73.50
2018-12-11T01:53:57.261Z,73.70
2018-12-11T01:56:31.456Z,73.50
2018-12-11T01:59:05.465Z,73.70
2018-12-11T02:01:40.221Z,73.30
2018-12-11T02:04:14.152Z,73.60
2018-12-11T02:06:48.231Z,73.70
2018-12-11T02:09:22.219Z,73.60
2018-12-11T02:11:56.913Z,73.50
2018-12-11T02:14:30.855Z,73.30
2018-12-11T02:17:05.787Z,73.00
2018-12-11T02:19:39.968Z,72.40
2018-12-11T02:22:15.437Z,72.40
2018-12-11T02:24:49.770Z,72.80
2018-12-11T02:27:23.672Z,71.70
2018-12-11T02:29:57.897Z,71.20
2018-12-11T02:32:31.905Z,71.90
2018-12-11T02:35:06.886Z,71.40
2018-12-11T02:37:40.972Z,71.00
2018-12-11T02:40:14.947Z,68.60
2018-12-11T02:42:50.005Z,69.20
2018-12-11T02:45:24.680Z,67.80
2018-12-11T02:47:58.485Z,67.90
2018-12-11T02:50:32.711Z,67.80
2018-12-11T02:53:06.730Z,67.60
2018-12-11T02:55:41.250Z,66.20
2018-12-11T02:58:15.320Z,65.80
2018-12-11T03:00:50.036Z,65.60
2018-12-11T03:03:24.122Z,63.80
2018-12-11T03:05:59.068Z,64.50
2018-12-11T03:08:33.514Z,64.80
2018-12-11T03:11:07.403Z,64.50
2018-12-11T03:13:41.546Z,63.90
2018-12-11T03:16:15.359Z,63.90
2018-12-11T03:18:49.876Z,64.20
2018-12-11T03:21:23.642Z,63.70
2018-12-11T03:23:57.526Z,63.70
2018-12-11T03:26:32.040Z,63.70
2018-12-11T03:34:07.725Z,63.00
2018-12-11T03:36:41.852Z,61.70
2018-12-11T03:39:15.765Z,61.50
2018-12-11T03:41:50.102Z,60.00
2018-12-11T03:44:24.595Z,60.10
2018-12-11T03:47:00.606Z,59.40
2018-12-11T03:49:34.718Z,59.00
2018-12-11T03:52:10.235Z,58.90
2018-12-11T03:54:44.276Z,58.30
2018-12-11T03:57:18.060Z,58.10
2018-12-11T03:59:51.894Z,58.30
2018-12-11T04:02:26.184Z,58.20
2018-12-11T04:05:08.005Z,58.60
2018-12-11T04:07:43.223Z,58.70
2018-12-11T04:10:20.553Z,58.50
2018-12-11T04:12:56.633Z,57.80
2018-12-11T04:15:32.057Z,58.30
2018-12-11T04:18:06.847Z,57.20
2018-12-11T04:20:43.997Z,57.80
2018-12-11T04:23:20.501Z,57.90
2018-12-11T04:25:54.593Z,57.80
2018-12-11T04:28:30.672Z,57.50
2018-12-11T04:31:05.714Z,57.60
2018-12-11T04:33:42.427Z,57.60
2018-12-11T04:36:16.475Z,57.50
2018-12-11T04:38:50.750Z,57.70
2018-12-11T04:41:25.105Z,57.30
2018-12-11T04:43:59.162Z,57.40
2018-12-11T04:46:33.494Z,58.70
2018-12-11T04:49:08.281Z,59.20
2018-12-11T04:51:42.530Z,59.70
2018-12-11T04:54:18.843Z,59.80
2018-12-11T04:56:52.928Z,59.70
2018-12-11T04:59:26.873Z,60.10
2018-12-11T05:02:01.216Z,60.10
2018-12-11T05:04:37.002Z,60.00
2018-12-11T05:07:12.181Z,60.00
2018-12-11T05:09:46.760Z,60.40
2018-12-11T05:12:20.698Z,60.60
2018-12-11T05:14:57.337Z,60.50
2018-12-11T05:17:33.301Z,60.20
2018-12-11T05:20:07.451Z,60.30
2018-12-11T05:22:44.591Z,60.30
2018-12-11T05:25:20.414Z,60.10
2018-12-11T05:27:55.788Z,59.80
2018-12-11T05:30:35.448Z,59.90
2018-12-11T05:33:10.686Z,59.60
2018-12-11T05:35:48.729Z,59.80
2018-12-11T05:38:22.861Z,59.60
2018-12-11T05:40:56.782Z,59.90
2018-12-11T05:43:30.970Z,60.10
2018-12-11T05:46:05.479Z,60.10
2018-12-11T05:48:41.770Z,59.50
2018-12-11T05:51:16.314Z,59.80
2018-12-11T05:53:50.476Z,60.00
2018-12-11T05:56:25.283Z,59.90
2018-12-11T05:58:59.542Z,59.50
2018-12-11T06:01:33.332Z,60.00
2018-12-11T06:04:07.648Z,60.00
2018-12-11T06:06:43.184Z,60.00
2018-12-11T06:09:19.304Z,59.80
2018-12-11T06:11:53.311Z,59.80
2018-12-11T06:14:28.017Z,59.50
2018-12-11T06:17:02.068Z,59.60
2018-12-11T06:19:37.969Z,59.50
2018-12-11T06:22:11.873Z,59.40
2018-12-11T06:24:48.153Z,59.40
2018-12-11T06:27:22.230Z,59.40
2018-12-11T06:29:57.722Z,60.00
2018-12-11T06:32:31.813Z,60.00
2018-12-11T06:35:06.123Z,60.50
2018-12-11T06:37:41.295Z,61.00
2018-12-11T06:40:16.140Z,61.20
2018-12-11T06:45:30.977Z,61.80
2018-12-11T06:48:05.178Z,61.80
2018-12-11T06:50:39.473Z,61.90
2018-12-11T06:53:13.591Z,62.10
2018-12-11T06:55:49.441Z,61.90
2018-12-11T06:58:24.358Z,62.20
2018-12-11T07:00:58.668Z,62.50
2018-12-11T07:03:32.810Z,62.90
2018-12-11T07:06:07.061Z,63.00
2018-12-11T07:08:43.239Z,62.80
2018-12-11T07:11:18.578Z,62.80
2018-12-11T07:13:56.440Z,62.90
2018-12-11T07:16:30.951Z,62.60
2018-12-11T07:19:05.018Z,62.30
2018-12-11T07:21:39.739Z,62.30
2018-12-11T07:24:13.737Z,62.30
2018-12-11T07:26:50.337Z,62.50
2018-12-11T07:29:24.182Z,62.30
2018-12-11T07:32:00.600Z,62.30
2018-12-11T07:34:34.869Z,62.40
2018-12-11T07:37:09.025Z,62.70
2018-12-11T07:39:45.531Z,63.10
2018-12-11T07:42:20.529Z,63.90
2018-12-11T07:44:55.573Z,63.20
2018-12-11T07:47:35.031Z,63.30
2018-12-11T07:50:11.306Z,63.00
2018-12-11T07:52:51.026Z,63.60
2018-12-11T07:55:25.409Z,63.60
2018-12-11T07:57:59.819Z,63.80
2018-12-11T08:00:34.225Z,64.30
2018-12-11T08:03:19.810Z,64.30
2018-12-11T08:05:54.255Z,64.60
2018-12-11T08:08:29.307Z,64.90
2018-12-11T08:11:02.865Z,63.60
2018-12-11T08:13:38.137Z,64.10
2018-12-11T08:16:13.834Z,63.80
2018-12-11T08:18:56.431Z,63.70
2018-12-11T08:21:30.485Z,63.60
2018-12-11T08:24:05.843Z,63.70
2018-12-11T08:26:44.594Z,64.00
2018-12-11T08:29:23.087Z,64.10
2018-12-11T08:31:57.440Z,63.90
2018-12-11T08:34:41.044Z,64.20
2018-12-11T08:37:20.501Z,63.70
2018-12-11T08:39:56.172Z,64.30
2018-12-11T08:42:30.582Z,63.60
2018-12-11T08:45:11.969Z,64.60
2018-12-11T08:47:47.619Z,64.40
2018-12-11T08:50:22.148Z,64.90
2018-12-11T08:52:56.586Z,65.30
2018-12-11T08:55:31.332Z,65.40
2018-12-11T08:58:05.463Z,65.80
2018-12-11T09:00:40.235Z,66.80
2018-12-11T09:03:16.157Z,66.90
2018-12-11T09:05:51.284Z,67.00
2018-12-11T09:08:27.060Z,67.40
2018-12-11T09:11:08.406Z,67.10
2018-12-11T09:13:43.908Z,66.80
2018-12-11T09:16:19.011Z,66.70
2018-12-11T09:18:56.317Z,67.30
2018-12-11T09:21:30.785Z,67.40
2018-12-11T09:24:11.861Z,67.50
2018-12-11T09:26:54.443Z,68.00
2018-12-11T09:29:30.403Z,68.90
2018-12-11T09:32:17.641Z,68.40
2018-12-11T09:34:51.707Z,68.00
2018-12-11T09:37:26.512Z,68.40
2018-12-11T09:40:00.993Z,68.60
2018-12-11T09:42:37.529Z,67.90
2018-12-11T09:45:13.928Z,67.20
2018-12-11T09:47:50.287Z,67.10
2018-12-11T09:50:25.989Z,67.50
2018-12-11T09:52:59.788Z,67.60
2018-12-11T09:55:35.000Z,67.30
2018-12-11T09:58:10.925Z,67.00
2018-12-11T10:00:50.447Z,66.60
2018-12-11T10:03:26.966Z,67.20
2018-12-11T10:06:01.073Z,66.70
2018-12-11T10:08:38.888Z,68.20
2018-12-11T10:11:13.293Z,68.90
2018-12-11T10:13:48.090Z,70.00
2018-12-11T10:16:21.973Z,70.10
2018-12-11T10:18:56.486Z,70.30
2018-12-11T10:21:29.989Z,70.40
2018-12-11T10:26:59.983Z,70.90
2018-12-11T10:29:34.961Z,71.10
2018-12-11T10:34:51.276Z,70.80
2018-12-11T10:37:28.619Z,71.20
2018-12-11T10:40:03.360Z,71.10
2018-12-11T10:42:36.970Z,71.50
2018-12-11T10:45:11.572Z,71.60
2018-12-11T10:47:46.579Z,71.60
2018-12-11T10:50:20.583Z,71.80
2018-12-11T10:52:54.836Z,71.90
2018-12-11T10:55:29.016Z,72.00
2018-12-11T10:58:02.562Z,72.90
2018-12-11T11:00:40.169Z,72.00
2018-12-11T11:03:14.122Z,72.10
2018-12-11T11:05:48.705Z,72.00
2018-12-11T11:08:27.613Z,71.30
2018-12-11T11:11:06.059Z,69.80
2018-12-11T11:13:42.449Z,69.70
2018-12-11T11:16:16.740Z,69.90
2018-12-11T11:18:50.854Z,69.60
2018-12-11T11:21:25.722Z,69.10
2018-12-11T11:23:59.917Z,68.70
2018-12-11T11:26:35.834Z,68.40
2018-12-11T11:29:10.112Z,68.30
2018-12-11T11:31:46.371Z,68.20
2018-12-11T11:34:20.530Z,68.00
2018-12-11T11:36:58.707Z,68.10
2018-12-11T11:39:39.576Z,67.20
2018-12-11T11:42:15.153Z,67.30
2018-12-11T11:44:50.879Z,67.50
2018-12-11T11:47:45.428Z,67.10
2018-12-11T11:50:23.404Z,67.40
2018-12-11T11:52:58.637Z,67.20
2018-12-11T11:55:33.815Z,67.50
2018-12-11T11:58:07.595Z,67.10
2018-12-11T12:00:43.989Z,67.40
2018-12-11T12:03:20.494Z,67.60
2018-12-11T12:06:02.167Z,67.40
2018-12-11T12:08:36.541Z,67.30
2018-12-11T12:11:10.703Z,67.10
2018-12-11T12:13:44.710Z,66.80
2018-12-11T12:16:18.847Z,66.90
2018-12-11T12:18:52.729Z,66.90
2018-12-11T12:21:30.370Z,66.60
2018-12-11T12:24:06.701Z,66.40
2018-12-11T12:26:40.962Z,66.50
2018-12-11T12:29:15.132Z,66.30
2018-12-11T12:31:51.474Z,67.00
2018-12-11T12:34:27.891Z,66.20
2018-12-11T12:37:01.965Z,66.40
2018-12-11T12:39:36.488Z,66.40
2018-12-11T12:42:11.114Z,66.40
2018-12-11T12:44:45.044Z,66.20
2018-12-11T12:47:19.081Z,66.00
2018-12-11T12:49:52.765Z,66.30
2018-12-11T12:52:26.938Z,66.40
2018-12-11T12:55:00.559Z,66.80
2018-12-11T12:57:34.676Z,67.10
2018-12-11T13:00:10.322Z,69.40
2018-12-11T13:02:49.942Z,70.60
2018-12-11T13:05:35.446Z,71.40
2018-12-11T13:08:13.483Z,72.00
2018-12-11T13:10:52.401Z,73.30
2018-12-11T13:13:26.673Z,73.60
2018-12-11T13:16:01.617Z,73.90
2018-12-11T13:18:36.528Z,74.00
2018-12-11T13:21:26.130Z,74.30
2018-12-11T13:23:59.885Z,75.70
2018-12-11T13:26:38.938Z,76.00
2018-12-11T13:29:17.168Z,76.10
2018-12-11T13:31:51.200Z,75.90
2018-12-11T13:34:25.514Z,75.90
2018-12-11T13:37:04.740Z,75.90
2018-12-11T13:39:39.162Z,75.90
2018-12-11T13:42:13.535Z,76.20
2018-12-11T13:44:47.317Z,76.40
2018-12-11T13:47:21.988Z,76.90
2018-12-11T13:49:59.793Z,76.50
2018-12-11T13:52:35.772Z,76.50
2018-12-11T13:55:09.552Z,77.30
2018-12-11T13:57:43.598Z,77.30
2018-12-11T14:00:17.733Z,77.50
2018-12-11T14:02:51.959Z,77.30
2018-12-11T14:05:27.681Z,77.00
2018-12-11T14:08:02.066Z,77.00
2018-12-11T14:10:35.895Z,77.00
2018-12-11T14:13:11.417Z,77.30
2018-12-11T14:15:45.556Z,76.90
2018-12-11T14:18:25.545Z,76.90
2018-12-11T14:21:00.142Z,76.60
2018-12-11T14:23:34.043Z,76.70
2018-12-11T14:26:07.987Z,76.90
2018-12-11T14:28:42.342Z,77.10
2018-12-11T14:31:19.509Z,76.80
2018-12-11T14:33:54.254Z,77.00
2018-12-11T14:36:28.290Z,77.50
2018-12-11T14:39:03.169Z,77.50
2018-12-11T14:41:39.689Z,77.50
2018-12-11T14:44:14.334Z,77.60
2018-12-11T14:46:48.377Z,77.60
2018-12-11T14:49:23.758Z,77.70
2018-12-11T14:52:01.638Z,77.80
2018-12-11T14:54:37.142Z,77.90
2018-12-11T14:57:11.285Z,77.90
2018-12-11T14:59:45.482Z,77.80
2018-12-11T15:02:22.458Z,77.90
2018-12-11T15:04:56.339Z,77.80
2018-12-11T15:07:30.484Z,77.80
2018-12-11T15:10:06.134Z,77.70
2018-12-11T15:12:41.389Z,78.00
2018-12-11T15:15:16.140Z,77.70
2018-12-11T15:17:50.205Z,77.90
2018-12-11T15:20:24.043Z,78.20
2018-12-11T15:22:57.980Z,78.30
2018-12-11T15:25:33.715Z,78.40
2018-12-11T15:28:08.948Z,78.40
2018-12-11T15:30:43.950Z,78.60
2018-12-11T15:33:17.558Z,78.80
2018-12-11T15:35:52.051Z,79.20
2018-12-11T15:38:26.210Z,79.20
2018-12-11T15:41:01.125Z,79.10
2018-12-11T15:43:36.468Z,79.30
2018-12-11T15:46:10.646Z,79.30
2018-12-11T15:48:45.046Z,79.40
2018-12-11T15:51:19.114Z,79.50
2018-12-11T15:53:55.217Z,79.60
2018-12-11T15:56:29.313Z,79.50
2018-12-11T15:59:03.341Z,79.60
2018-12-11T16:01:38.144Z,79.60
2018-12-11T16:04:14.134Z,79.60
2018-12-11T16:06:48.226Z,79.80
2018-12-11T16:09:25.944Z,79.70
2018-12-11T16:11:59.729Z,79.60
2018-12-11T16:14:34.749Z,79.70
2018-12-11T16:17:08.840Z,79.60
2018-12-11T16:19:43.754Z,80.00
2018-12-11T16:22:17.857Z,80.00
2018-12-11T16:24:52.528Z,80.20
2018-12-11T16:27:27.628Z,80.30
2018-12-11T16:30:01.945Z,80.20
2018-12-11T16:32:35.907Z,80.10
2018-12-11T16:35:11.705Z,80.20
2018-12-11T16:37:46.143Z,80.20
2018-12-11T16:40:21.698Z,80.30
2018-12-11T16:42:56.705Z,80.50
2018-12-11T16:45:31.169Z,80.40
2018-12-11T16:48:05.105Z,80.50
2018-12-11T16:50:39.331Z,80.50
2018-12-11T16:53:14.233Z,80.60
2018-12-11T16:55:48.408Z,80.60
2018-12-11T16:58:22.572Z,80.60
2018-12-11T17:00:57.271Z,80.60
2018-12-11T17:03:31.079Z,80.70
2018-12-11T17:06:04.870Z,80.60
2018-12-11T17:08:39.001Z,80.70
2018-12-11T17:11:13.336Z,80.80
2018-12-11T17:13:48.308Z,81.10
2018-12-11T17:16:22.568Z,81.00
2018-12-11T17:18:56.233Z,80.90
2018-12-11T17:21:31.280Z,81.10
2018-12-11T17:24:05.961Z,81.10
2018-12-11T17:26:40.209Z,81.20
2018-12-11T17:29:15.954Z,81.10
2018-12-11T17:31:49.807Z,81.20
2018-12-11T17:34:23.955Z,81.10
2018-12-11T17:36:57.536Z,81.20
2018-12-11T17:39:31.740Z,81.30
2018-12-11T17:42:05.858Z,81.50
2018-12-11T17:44:41.587Z,81.60
2018-12-11T17:47:15.474Z,81.60
2018-12-11T17:49:49.902Z,81.60
2018-12-11T17:52:23.932Z,82.70
2018-12-11T17:54:58.107Z,81.80
2018-12-11T17:57:32.235Z,81.90
2018-12-11T18:00:06.578Z,82.70
2018-12-11T18:02:41.541Z,82.00
2018-12-11T18:05:15.512Z,82.10
2018-12-11T18:07:49.204Z,82.10
2018-12-11T18:10:23.095Z,82.00
2018-12-11T18:12:58.633Z,82.90
2018-12-11T18:15:32.675Z,82.10
2018-12-11T18:18:07.174Z,82.10
2018-12-11T18:20:43.430Z,82.20
2018-12-11T18:23:17.576Z,82.10
2018-12-11T18:25:51.971Z,82.10
2018-12-11T18:28:26.987Z,82.10
2018-12-11T18:31:01.221Z,82.10
2018-12-11T18:33:35.418Z,82.10
2018-12-11T18:36:10.880Z,82.10
2018-12-11T18:38:46.391Z,82.30
2018-12-11T18:41:20.546Z,82.30
2018-12-11T18:43:54.698Z,82.20
2018-12-11T18:46:30.698Z,82.30
2018-12-11T18:49:07.183Z,82.50
2018-12-11T18:51:41.515Z,82.60
2018-12-11T18:54:15.693Z,82.10
2018-12-11T18:56:49.754Z,82.60
2018-12-11T18:59:23.897Z,82.50
2018-12-11T19:01:59.177Z,82.60
2018-12-11T19:04:34.498Z,82.60
2018-12-11T19:09:46.626Z,82.60
2018-12-11T19:12:20.712Z,82.80
2018-12-11T19:14:55.869Z,82.80
2018-12-11T19:17:30.151Z,82.80
2018-12-11T19:20:04.877Z,82.80
2018-12-11T19:22:39.367Z,82.90
2018-12-11T19:25:18.117Z,83.10
2018-12-11T19:27:53.477Z,83.30
2018-12-11T19:30:28.451Z,83.20
2018-12-11T19:33:03.219Z,83.40
2018-12-11T19:35:37.647Z,83.40
2018-12-11T19:38:11.968Z,83.50
2018-12-11T19:40:47.913Z,83.40
2018-12-11T19:43:22.897Z,83.40
2018-12-11T19:45:56.919Z,83.40
2018-12-11T19:48:32.424Z,83.50
2018-12-11T19:51:06.703Z,83.50
2018-12-11T19:53:40.724Z,83.50
2018-12-11T19:56:15.128Z,84.30
2018-12-11T19:58:50.096Z,83.50
2018-12-11T20:01:24.551Z,83.50
2018-12-11T20:03:58.591Z,83.40
2018-12-11T20:06:34.223Z,83.40
2018-12-11T20:09:09.561Z,83.40
2018-12-11T20:11:43.737Z,83.40
2018-12-11T20:14:18.030Z,83.40
2018-12-11T20:16:53.738Z,83.30
2018-12-11T20:19:28.004Z,83.30
2018-12-11T20:22:03.183Z,83.20
2018-12-11T20:24:37.256Z,83.20
2018-12-11T20:27:11.164Z,83.20
2018-12-11T20:29:45.349Z,83.20
2018-12-11T20:32:20.554Z,83.20
2018-12-11T20:34:54.755Z,83.60
2018-12-11T20:37:28.695Z,83.30
2018-12-11T20:40:02.991Z,83.30
2018-12-11T20:42:36.937Z,83.40
2018-12-11T20:45:10.975Z,83.30
2018-12-11T20:47:46.109Z,83.40
2018-12-11T20:50:21.437Z,83.60
2018-12-11T20:52:56.242Z,83.50
2018-12-11T20:55:30.101Z,83.50
2018-12-11T20:58:05.339Z,83.50
2018-12-11T21:00:40.735Z,83.50
2018-12-11T21:03:14.946Z,83.30
2018-12-11T21:05:49.152Z,84.30
2018-12-11T21:08:25.786Z,83.50
2018-12-11T21:11:00.471Z,83.40
2018-12-11T21:13:34.769Z,83.70
2018-12-11T21:16:11.080Z,84.20
2018-12-11T21:18:45.441Z,83.20
2018-12-11T21:21:19.869Z,83.00
2018-12-11T21:23:55.209Z,82.50
2018-12-11T21:26:29.200Z,82.40
2018-12-11T21:29:03.825Z,82.10
2018-12-11T21:31:39.152Z,81.90
2018-12-11T21:34:14.151Z,82.50
2018-12-11T21:36:49.107Z,81.50
2018-12-11T21:39:23.047Z,81.20
2018-12-11T21:41:57.258Z,81.00
2018-12-11T21:44:31.324Z,81.20
2018-12-11T21:47:05.570Z,81.20
2018-12-11T21:49:39.666Z,81.00
2018-12-11T21:52:15.940Z,81.10
2018-12-11T21:54:49.671Z,81.00
2018-12-11T21:57:23.429Z,81.00
2018-12-11T21:59:57.893Z,81.10
2018-12-11T22:02:32.162Z,81.20
2018-12-11T22:05:07.143Z,81.20
2018-12-11T22:10:22.811Z,81.20
2018-12-11T22:12:57.974Z,81.20
2018-12-11T22:15:31.948Z,81.40
2018-12-11T22:18:05.933Z,81.40
2018-12-11T22:20:39.927Z,81.30
2018-12-11T22:23:14.645Z,81.30
2018-12-11T22:25:48.911Z,81.30
2018-12-11T22:28:23.008Z,81.20
2018-12-11T22:30:58.083Z,81.20
2018-12-11T22:33:33.252Z,80.30
2018-12-11T22:36:07.818Z,81.10
2018-12-11T22:38:50.053Z,81.10
2018-12-11T22:41:24.366Z,81.00
2018-12-11T22:43:59.789Z,81.10
2018-12-11T22:46:34.896Z,81.00
2018-12-11T22:49:09.024Z,81.00
2018-12-11T22:51:43.585Z,81.00
2018-12-11T22:54:18.890Z,81.00
2018-12-11T22:56:55.393Z,80.90
2018-12-11T22:59:29.932Z,81.00
2018-12-11T23:02:04.951Z,81.00
2018-12-11T23:04:41.621Z,81.00
2018-12-11T23:07:15.715Z,80.80
2018-12-11T23:09:49.587Z,80.80
2018-12-11T23:12:24.348Z,80.80
2018-12-11T23:15:00.947Z,80.70
2018-12-11T23:17:44.204Z,80.50
2018-12-11T23:20:19.588Z,80.40
2018-12-11T23:22:53.837Z,80.30
2018-12-11T23:25:28.029Z,80.20
2018-12-11T23:28:03.387Z,80.30
2018-12-11T23:30:38.310Z,80.30
2018-12-11T23:33:12.804Z,80.10
2018-12-11T23:35:49.225Z,80.00
2018-12-11T23:38:23.532Z,80.10
2018-12-11T23:40:58.518Z,79.90
2018-12-11T23:43:32.305Z,79.90
2018-12-11T23:46:08.455Z,79.60
2018-12-11T23:48:42.901Z,79.60
2018-12-11T23:51:16.999Z,79.70
2018-12-11T23:53:51.260Z,80.50
2018-12-11T23:56:26.188Z,79.40
2018-12-11T23:59:03.674Z,79.20
